Nearby METAR Reports

 

KFFZ - Mesa/Falcon Fld, Arizona, USA
Distance from station: ENE 9mi, 15km
Updated: Tue, 11-Dec-2018 2:54am MST
Clear
Clear
 Wind from NE
Wind: NE 10 mph , 17 km/h
Temperature: 61°F , 16°C
Dew Point: 30°F , -1°C
Humidity: 31%
Barometer: 30.03 inHg , 1016.9 hPa
Clouds: Clear
Visibility: 10 miles , 16 km
2018/12/11 09:54 KFFZ 110954Z AUTO 04009KT 10SM CLR 16/M01 A3003 RMK AO2 SLP154 T01561006
KIWA - Chandler/Mesa, Arizona, USA
Distance from station: ESE 14mi, 22km
Updated: Tue, 11-Dec-2018 3:15am MST
Clear
Clear
 Wind from E
Wind: E 8 mph , 13 km/h
Temperature: 52°F , 11°C
Dew Point: 34°F , 1°C
Humidity: 50%
Barometer: 30.05 inHg , 1017.6 hPa
Clouds: Clear
Visibility: 10 miles , 16 km
2018/12/11 10:15 KIWA 111015Z AUTO 08007KT 10SM CLR 11/01 A3005 RMK AO2 T01100007
 
KFLG - Flagstaff, Arizona, USA
Distance from station: N 120mi, 193km
Updated: Tue, 11-Dec-2018 2:57am MST
Clear
Clear
 Wind from calm
Wind: Calm
Temperature: 28°F , -2°C
Dew Point: 23°F , -5°C
Humidity: 80%
Barometer: 30.21 inHg , 1023 hPa
Clouds: Clear
Visibility: 10 miles , 16 km
2018/12/11 09:57 KFLG 110957Z AUTO 00000KT 10SM CLR M02/M05 A3021 RMK AO2 SLP200 T10171050 $
KTUS - Tucson, Arizona, USA
Distance from station: SSE 102mi, 164km
Updated: Tue, 11-Dec-2018 2:53am MST
Clear
Clear
 Wind from SE
Wind: SE 12 mph , 19 km/h
Temperature: 55°F , 13°C
Dew Point: 36°F , 2°C
Humidity: 47%
Barometer: 30.09 inHg , 1019 hPa
Clouds: Clear
Visibility: 10 miles , 16 km
2018/12/11 09:53 KTUS 110953Z 14010KT 10SM CLR 13/02 A3009 RMK AO2 SLP163 T01280022
 
KSOW - Show Low Municip, Arizona, USA
Distance from station: ENE 122mi, 196km
Updated: Tue, 11-Dec-2018 3:15am MST
Clear
Clear
 Wind from varies
Wind: varies 3 mph , 6 km/h
Temperature: 36°F , 2°C
Dew Point: 23°F , -5°C
Humidity: 60%
Barometer: 30.22 inHg , 1023.4 hPa
Clouds: Clear
Visibility: 10 miles , 16 km
2018/12/11 10:15 KSOW 111015Z AUTO VRB03KT 10SM CLR 02/M05 A3022 RMK AO2
KINW - Winslow, Arizona, USA
Distance from station: NNE 130mi, 209km
Updated: Tue, 11-Dec-2018 2:56am MST
Clear
Clear
 Wind from W
Wind: W 6 mph , 9 km/h
Temperature: 36°F , 2°C
Wind Chill: 31°F , -1°C
Dew Point: 27°F , -3°C
Humidity: 70%
Barometer: 30.22 inHg , 1023.4 hPa
Clouds: Clear
Visibility: 10 miles , 16 km
2018/12/11 09:56 KINW 110956Z AUTO 26005KT 10SM CLR 02/M03 A3022 RMK AO2 SLP227 T00171028
 
KPRC - Prescott, Arizona, USA
Distance from station: NNW 92mi, 148km
Updated: Tue, 11-Dec-2018 2:53am MST
Clear
Clear
 Wind from calm
Wind: Calm
Temperature: 37°F , 3°C
Dew Point: 28°F , -2°C
Humidity: 70%
Barometer: 30.16 inHg , 1021.3 hPa
Clouds: Clear
Visibility: 10 miles , 16 km
2018/12/11 09:53 KPRC 110953Z AUTO 00000KT 10SM CLR 03/M02 A3016 RMK AO2 SLP184 T00331022
KPAN - Payson, Arizona, USA
Distance from station: NNE 66mi, 106km
Updated: Tue, 11-Dec-2018 3:15am MST
Clear
Clear
 Wind from calm
Wind: Calm
Temperature: 41°F , 5°C
Dew Point: 27°F , -3°C
Humidity: 57%
Barometer: 30.19 inHg , 1022.4 hPa
Clouds: Clear
Visibility: 10 miles , 16 km
2018/12/11 10:15 KPAN 111015Z AUTO 00000KT 10SM CLR 05/M03 A3019 RMK AO2
 
KSEZ - Sedona, Arizona, USA
Distance from station: N 100mi, 161km
Updated: Tue, 11-Dec-2018 3:15am MST
Clear
Clear
 Wind from NNE
Wind: NNE 9 mph , 15 km/h
Temperature: 46°F , 8°C
Wind Chill: 41°F , 5°C
Dew Point: 28°F , -2°C
Humidity: 50%
Barometer: 30.17 inHg , 1021.7 hPa
Clouds: Clear
Visibility: 10 miles , 16 km
2018/12/11 10:15 KSEZ 111015Z AUTO 03008KT 10SM CLR 08/M02 A3017 RMK AO2
KSAD - Safford, Arizona, USA
Distance from station: ESE 150mi, 241km
Updated: Tue, 11-Dec-2018 2:51am MST
Clear
Clear
 Wind from ESE
Wind: ESE 8 mph , 13 km/h
Temperature: 48°F , 9°C
Wind Chill: 44°F , 7°C
Dew Point: 30°F , -1°C
Humidity: 50%
Barometer: 30.18 inHg , 1022 hPa
Clouds: Clear
Visibility: 10 miles , 16 km
2018/12/11 09:51 KSAD 110951Z AUTO 12007KT 10SM CLR 09/M01 A3018 RMK AO2 SLP201 T00891006